Time;durP1;ratioP1;P1;durP2;ratioP2;P2;SDS_P1;SDS_P2;PMS_P1;PMS_P2;Temp;Humidity;BMP_temperature;BMP_pressure;BME280_temperature;BME280_humidity;BME280_pressure;Samples;Min_cycle;Max_cycle;Signal;HPM_P1;HPM_P2
2021/03/15 00:00:29;;;;;;;36.63;26.95;;;;;;;5.42;69.81;98512.80;1752948;80;21151;-39
2021/03/15 00:02:57;;;;;;;34.92;26.77;;;;;;;5.45;69.86;98513.47;1753986;80;21203;-39
2021/03/15 00:05:25;;;;;;;39.13;27.52;;;;;;;5.44;69.87;98519.18;1751487;80;21154;-39
2021/03/15 00:07:53;;;;;;;39.25;28.25;;;;;;;5.44;69.87;98530.72;1752203;80;21278;-40
2021/03/15 00:10:23;;;;;;;36.33;27.05;;;;;;;5.45;69.84;98520.75;1750980;80;21210;-40
2021/03/15 00:12:51;;;;;;;36.03;26.77;;;;;;;5.45;69.76;98527.47;1751327;80;21182;-40
2021/03/15 00:15:21;;;;;;;37.42;27.20;;;;;;;5.42;69.79;98530.86;1773864;80;21177;-39
2021/03/15 00:17:49;;;;;;;36.30;25.72;;;;;;;5.42;69.63;98535.64;1768162;80;21186;-40
2021/03/15 00:20:20;;;;;;;36.85;26.50;;;;;;;5.44;69.60;98532.06;1753286;80;21186;-40
2021/03/15 00:22:48;;;;;;;41.35;27.73;;;;;;;5.51;69.50;98532.25;1750131;82;21194;-39
2021/03/15 00:25:18;;;;;;;38.98;27.52;;;;;;;5.49;69.36;98525.09;1754207;80;21190;-39
2021/03/15 00:27:46;;;;;;;38.53;27.55;;;;;;;5.40;69.52;98527.16;1751823;80;21186;-40
2021/03/15 00:30:17;;;;;;;37.90;25.62;;;;;;;5.35;69.71;98529.31;1761736;80;22233;-39
2021/03/15 00:32:46;;;;;;;41.10;28.47;;;;;;;5.32;69.91;98525.42;1766802;80;21609;-39
2021/03/15 00:35:17;;;;;;;38.90;27.05;;;;;;;5.33;69.85;98522.94;1711027;82;21060;-39
2021/03/15 00:37:46;;;;;;;36.45;25.55;;;;;;;5.29;69.86;98519.94;1760103;80;21158;-39
2021/03/15 00:40:16;;;;;;;34.60;25.95;;;;;;;5.29;69.83;98514.00;1754813;80;21169;-39
2021/03/15 00:42:45;;;;;;;39.30;27.13;;;;;;;5.28;69.92;98507.66;1753557;80;21166;-39
2021/03/15 00:45:15;;;;;;;39.38;27.67;;;;;;;5.22;69.96;98506.56;1764366;80;21526;-40
2021/03/15 00:47:44;;;;;;;38.98;27.93;;;;;;;5.18;70.13;98512.97;1775431;80;21325;-40
2021/03/15 00:50:26;;;;;;;41.00;28.85;;;;;;;5.12;70.37;98505.72;1764576;80;21182;-40
2021/03/15 00:52:55;;;;;;;43.05;28.12;;;;;;;4.77;70.46;98459.88;1756745;80;21158;-39
2021/03/15 00:55:24;;;;;;;36.55;27.10;;;;;;;5.06;70.56;98498.23;1748568;80;21147;-40
2021/03/15 00:57:52;;;;;;;38.25;27.07;;;;;;;5.10;70.64;98497.77;1743688;80;22242;-39
2021/03/15 01:00:29;;;;;;;37.98;28.20;;;;;;;5.16;70.45;98495.84;1745145;80;21162;-39
2021/03/15 01:03:02;;;;;;;41.05;28.75;;;;;;;5.22;70.42;98492.34;1721991;80;21147;-39
2021/03/15 01:05:43;;;;;;;41.85;28.32;;;;;;;5.21;70.38;98498.27;1744576;80;21624;-39
2021/03/15 01:08:13;;;;;;;38.05;27.85;;;;;;;5.20;70.53;98493.23;1752842;80;21159;-39
2021/03/15 01:10:45;;;;;;;41.98;29.50;;;;;;;5.18;70.47;98493.56;1724979;80;21284;-39
2021/03/15 01:13:15;;;;;;;41.42;29.63;;;;;;;5.17;70.52;98482.63;1744345;80;21037;-40
2021/03/15 01:15:44;;;;;;;38.23;26.62;;;;;;;5.17;70.52;98479.16;1744716;80;20989;-40
2021/03/15 01:18:12;;;;;;;38.02;26.60;;;;;;;5.18;70.47;98475.34;1744311;80;21150;-39
2021/03/15 01:20:41;;;;;;;38.30;27.27;;;;;;;5.19;70.38;98479.02;1764056;80;21600;-39
2021/03/15 01:23:10;;;;;;;38.90;26.68;;;;;;;5.22;70.28;98478.91;1771360;80;21390;-39
2021/03/15 01:25:40;;;;;;;43.60;29.23;;;;;;;5.17;70.40;98483.19;1766454;80;21182;-39
2021/03/15 01:28:11;;;;;;;42.45;28.52;;;;;;;5.13;70.45;98489.79;1746778;80;21059;-40
2021/03/15 01:30:39;;;;;;;40.63;29.23;;;;;;;5.08;70.47;98486.59;1712627;82;21202;-39
2021/03/15 01:33:07;;;;;;;41.15;28.85;;;;;;;4.98;70.61;98494.59;1762568;80;21136;-40
2021/03/15 01:35:35;;;;;;;42.67;28.75;;;;;;;4.84;70.90;98492.87;1752217;80;21370;-39
2021/03/15 01:38:05;;;;;;;36.48;26.37;;;;;;;4.75;71.24;98504.30;1743693;80;21167;-39
2021/03/15 01:40:37;;;;;;;;;;;;;;;4.73;71.29;98495.26;1755816;80;21147;-39
2021/03/15 01:43:06;;;;;;;38.50;27.15;;;;;;;4.77;71.29;98500.16;1746360;80;20710;-39
2021/03/15 01:45:34;;;;;;;38.60;27.00;;;;;;;4.70;71.48;98495.92;1751775;80;21116;-39
2021/03/15 01:48:04;;;;;;;39.05;27.42;;;;;;;4.76;71.37;98494.56;1771485;80;21364;-39
2021/03/15 01:50:32;;;;;;;40.65;28.55;;;;;;;4.86;71.07;98498.66;1743056;82;21122;-40
2021/03/15 01:53:00;;;;;;;36.68;27.02;;;;;;;4.91;70.80;98500.32;1744973;80;21459;-39
2021/03/15 01:55:29;;;;;;;39.27;28.07;;;;;;;4.96;70.59;98500.86;1773222;80;21167;-39
2021/03/15 01:57:57;;;;;;;37.00;27.25;;;;;;;4.96;70.41;98507.58;1769903;80;21577;-39
2021/03/15 02:00:24;;;;;;;34.18;25.00;;;;;;;4.99;70.23;98503.41;1762443;80;21285;-39
2021/03/15 02:02:58;;;;;;;38.02;27.32;;;;;;;5.01;70.09;98497.92;1769830;80;21628;-39
2021/03/15 02:05:36;;;;;;;41.05;27.87;;;;;;;5.05;70.06;98489.39;1752202;80;21182;-40
2021/03/15 02:08:05;;;;;;;41.05;27.90;;;;;;;5.03;70.20;98489.53;1752874;80;21124;-40
2021/03/15 02:10:34;;;;;;;41.92;28.87;;;;;;;5.00;70.35;98490.20;1776298;80;21130;-39
2021/03/15 02:13:25;;;;;;;40.20;28.83;;;;;;;4.99;70.48;98488.63;1714408;82;22298;-39
2021/03/15 02:16:20;;;;;;;39.42;28.15;;;;;;;4.96;70.55;98490.11;1765457;80;21198;-39
2021/03/15 02:19:12;;;;;;;37.58;27.42;;;;;;;4.87;70.82;98486.02;1777975;80;21051;-40
2021/03/15 02:22:07;;;;;;;35.55;26.00;;;;;;;4.80;71.04;98491.41;1755968;80;21190;-40
2021/03/15 02:24:57;;;;;;;40.17;28.65;;;;;;;4.83;71.27;98502.60;1771135;80;21004;-39
2021/03/15 02:27:47;;;;;;;39.42;27.82;;;;;;;4.81;71.47;98493.53;1733894;80;21198;-39
2021/03/15 02:30:57;;;;;;;41.77;28.27;;;;;;;4.75;71.68;98487.62;1764530;80;21051;-39
2021/03/15 02:33:49;;;;;;;40.43;28.73;;;;;;;4.68;71.99;98486.66;1774925;80;21581;-39
2021/03/15 02:36:16;;;;;;;41.83;29.07;;;;;;;4.65;72.16;98492.13;1771099;80;21598;-39
2021/03/15 02:38:46;;;;;;;43.40;28.23;;;;;;;4.67;72.16;98487.22;1757240;80;21143;-39
2021/03/15 02:41:18;;;;;;;31.25;21.65;;;;;;;4.71;72.15;98486.75;1710730;82;21375;-39
2021/03/15 02:43:58;;;;;;;46.20;29.32;;;;;;;4.77;72.11;98489.42;1757192;80;21028;-40
2021/03/15 02:46:28;;;;;;;49.25;31.80;;;;;;;4.79;72.06;98492.52;1751846;80;21143;-39
2021/03/15 02:48:59;;;;;;;47.40;30.45;;;;;;;4.76;72.01;98483.82;1752475;80;21115;-40
2021/03/15 02:51:28;;;;;;;48.08;31.23;;;;;;;4.72;72.26;98486.19;1731599;80;21629;-39
2021/03/15 02:53:56;;;;;;;42.13;30.32;;;;;;;4.69;72.30;98486.88;1751779;80;22282;-39
2021/03/15 02:56:26;;;;;;;48.38;29.70;;;;;;;4.67;72.27;98483.19;1757283;80;21569;-39
2021/03/15 02:58:58;;;;;;;46.13;29.50;;;;;;;4.72;72.29;98480.27;1751581;80;21171;-40
2021/03/15 03:01:26;;;;;;;42.35;30.08;;;;;;;4.78;72.17;98481.59;1752441;80;21183;-39
2021/03/15 03:03:55;;;;;;;44.45;30.45;;;;;;;4.78;72.23;98478.91;1756304;80;21103;-39
2021/03/15 03:06:25;;;;;;;43.02;29.80;;;;;;;4.76;72.25;98481.14;1742960;82;21367;-39
2021/03/15 03:08:53;;;;;;;42.95;30.32;;;;;;;4.76;72.29;98477.11;1754583;80;21151;-39
2021/03/15 03:11:23;;;;;;;47.25;29.42;;;;;;;4.77;72.13;98471.97;1767807;80;21203;-39
2021/03/15 03:13:51;;;;;;;45.03;29.95;;;;;;;4.77;72.18;98475.99;1746528;80;21155;-39
2021/03/15 03:16:19;;;;;;;44.53;30.08;;;;;;;4.80;72.10;98476.64;1744273;80;21155;-40
2021/03/15 03:18:51;;;;;;;41.83;30.40;;;;;;;4.86;71.95;98486.58;1752094;80;21200;-39
2021/03/15 03:21:21;;;;;;;41.95;29.72;;;;;;;4.85;71.99;98496.31;1722323;82;21780;-40
2021/03/15 03:23:50;;;;;;;47.38;30.88;;;;;;;4.78;72.05;98492.89;1744111;80;21643;-40
2021/03/15 03:26:28;;;;;;;48.63;31.60;;;;;;;4.75;72.12;98495.67;1752220;80;21143;-39
2021/03/15 03:28:56;;;;;;;50.45;31.20;;;;;;;4.72;72.23;98497.72;1746408;80;21674;-40
2021/03/15 03:31:28;;;;;;;44.60;29.98;;;;;;;4.70;72.30;98503.19;1755548;80;21194;-39
2021/03/15 03:33:55;;;;;;;45.38;28.25;;;;;;;4.72;72.21;98508.45;1761042;80;21167;-40
2021/03/15 03:36:23;;;;;;;47.43;29.82;;;;;;;4.77;71.99;98502.06;1751958;80;21004;-39
2021/03/15 03:38:52;;;;;;;51.83;30.50;;;;;;;4.78;71.91;98499.05;1752294;80;21163;-39
2021/03/15 03:41:19;;;;;;;52.13;31.45;;;;;;;4.80;71.80;98506.17;1716671;82;21119;-39
2021/03/15 03:43:49;;;;;;;48.33;30.37;;;;;;;4.82;71.78;98505.84;1747316;80;21199;-40
2021/03/15 03:46:18;;;;;;;44.80;30.40;;;;;;;4.85;71.70;98515.11;1742426;80;21159;-39
2021/03/15 03:48:46;;;;;;;41.83;29.05;;;;;;;4.87;71.58;98507.50;1750954;80;20981;-39
2021/03/15 03:51:14;;;;;;;44.42;28.87;;;;;;;4.88;71.23;98507.17;1750388;80;21724;-39
2021/03/15 03:53:52;;;;;;;42.95;28.73;;;;;;;4.89;70.92;98513.33;1741953;80;21159;-39
2021/03/15 03:56:59;;;;;;;41.80;28.27;;;;;;;4.91;70.65;98509.72;1767346;80;21398;-40
2021/03/15 03:59:28;;;;;;;44.77;27.58;;;;;;;4.99;70.38;98514.94;1767507;80;21182;-40
2021/03/15 04:01:58;;;;;;;47.23;30.25;;;;;;;5.04;70.12;98519.28;1768727;80;21574;-39
2021/03/15 04:04:28;;;;;;;43.95;30.35;;;;;;;5.05;70.02;98524.31;1755048;80;21566;-39
2021/03/15 04:06:55;;;;;;;42.40;29.42;;;;;;;5.03;70.09;98524.45;1747081;80;21147;-39
2021/03/15 04:09:31;;;;;;;50.12;30.25;;;;;;;4.93;70.13;98528.41;1750141;80;22426;-39
2021/03/15 04:12:11;;;;;;;48.78;32.03;;;;;;;4.85;70.32;98533.91;1778471;79;21593;-40
2021/03/15 04:14:45;;;;;;;49.27;30.97;;;;;;;4.77;70.54;98542.34;1767747;80;21162;-39
2021/03/15 04:17:22;;;;;;;42.58;28.75;;;;;;;4.73;70.65;98544.92;1760593;79;21154;-39
2021/03/15 04:19:59;;;;;;;46.68;30.77;;;;;;;4.71;70.79;98545.81;1780048;80;21216;-39
2021/03/15 04:22:28;;;;;;;59.80;32.00;;;;;;;4.71;71.13;98539.11;1713725;83;21603;-39
2021/03/15 04:24:59;;;;;;;52.27;32.98;;;;;;;4.70;71.37;98543.46;1772993;80;21649;-39
2021/03/15 04:27:27;;;;;;;64.37;36.03;;;;;;;4.68;71.52;98547.06;1772882;80;22179;-39
2021/03/15 04:29:55;;;;;;;71.77;34.50;;;;;;;4.65;71.78;98546.38;1768637;80;21159;-39
2021/03/15 04:32:23;;;;;;;62.50;33.28;;;;;;;4.61;72.03;98547.63;1768495;80;21628;-40
2021/03/15 04:34:52;;;;;;;58.65;33.80;;;;;;;4.58;72.11;98552.34;1759307;80;22120;-39
2021/03/15 04:37:19;;;;;;;60.48;35.00;;;;;;;4.59;72.35;98551.23;1751823;80;21150;-39
2021/03/15 04:39:47;;;;;;;62.48;35.30;;;;;;;4.67;72.36;98545.50;1774940;80;21664;-39
2021/03/15 04:42:15;;;;;;;57.33;34.75;;;;;;;4.68;72.52;98543.82;1778919;80;21016;-39
2021/03/15 04:44:43;;;;;;;65.65;35.17;;;;;;;4.73;72.48;98552.20;1759386;80;21708;-39
2021/03/15 04:47:12;;;;;;;69.42;35.83;;;;;;;4.76;72.31;98545.58;1750893;82;21158;-39
2021/03/15 04:49:41;;;;;;;69.30;35.25;;;;;;;4.77;72.30;98544.47;1753849;80;21762;-39
2021/03/15 04:52:11;;;;;;;63.28;33.92;;;;;;;4.85;72.30;98551.36;1712696;82;21205;-39
2021/03/15 04:54:39;;;;;;;71.90;34.90;;;;;;;4.93;72.18;98551.24;1764310;80;21652;-39
2021/03/15 04:57:07;;;;;;;77.72;39.10;;;;;;;4.97;72.15;98550.77;1707305;83;21161;-39
2021/03/15 04:59:35;;;;;;;97.12;38.90;;;;;;;4.96;72.24;98556.48;1715989;82;21370;-39
2021/03/15 05:02:03;;;;;;;115.10;41.77;;;;;;;4.95;72.35;98555.70;1743393;80;21462;-39
2021/03/15 05:04:32;;;;;;;104.53;39.73;;;;;;;4.96;72.35;98559.16;1764956;80;21605;-39
2021/03/15 05:06:59;;;;;;;83.55;39.10;;;;;;;4.98;72.38;98556.93;1707018;82;22314;-39
2021/03/15 05:09:29;;;;;;;71.75;38.10;;;;;;;5.03;72.28;98557.47;1756160;80;21185;-39
2021/03/15 05:11:58;;;;;;;57.13;30.15;;;;;;;5.12;72.28;98551.95;1759155;80;21385;-40
2021/03/15 05:14:29;;;;;;;;;;;;;;;5.18;72.09;98551.92;1730654;82;21192;-40
2021/03/15 05:16:56;;;;;;;116.40;40.08;;;;;;;5.20;72.18;98549.66;1678153;82;20157;-39
2021/03/15 05:19:24;;;;;;;93.67;40.52;;;;;;;5.14;72.38;98560.43;1759959;80;21135;-39
2021/03/15 05:21:52;;;;;;;100.95;39.78;;;;;;;5.15;72.23;98564.12;1702917;82;21119;-39
2021/03/15 05:24:20;;;;;;;73.92;37.75;;;;;;;5.08;72.28;98561.82;1748545;80;21352;-39
2021/03/15 05:26:47;;;;;;;63.73;36.17;;;;;;;5.02;72.49;98569.34;1707173;84;21166;-39
2021/03/15 05:29:15;;;;;;;90.87;38.50;;;;;;;5.00;72.64;98580.97;1765364;80;21123;-39
2021/03/15 05:31:47;;;;;;;104.12;40.25;;;;;;;4.99;72.90;98577.27;1707251;84;21198;-39
2021/03/15 05:34:15;;;;;;;102.02;38.98;;;;;;;4.94;73.12;98574.27;1761695;80;21147;-39
2021/03/15 05:36:43;;;;;;;113.95;38.65;;;;;;;4.89;73.38;98575.84;1764524;80;21441;-40
2021/03/15 05:39:11;;;;;;;79.80;38.80;;;;;;;4.93;73.64;98581.34;1746059;80;21634;-40
2021/03/15 05:41:55;;;;;;;73.25;38.63;;;;;;;4.99;73.66;98578.61;1755316;80;21309;-39
2021/03/15 05:45:18;;;;;;;68.80;37.95;;;;;;;5.08;73.62;98585.41;1773281;80;21429;-39
2021/03/15 05:48:06;;;;;;;91.05;40.10;;;;;;;5.16;73.70;98580.47;1658495;84;21172;-40
2021/03/15 05:51:04;;;;;;;83.62;38.83;;;;;;;5.21;73.91;98579.44;1820617;76;22705;-39
2021/03/15 05:54:02;;;;;;;89.07;39.20;;;;;;;5.18;73.81;98588.20;1789449;79;21177;-39
2021/03/15 05:56:59;;;;;;;67.15;40.60;;;;;;;5.12;73.71;98585.53;1754620;81;21200;-39
2021/03/15 05:59:47;;;;;;;59.98;35.92;;;;;;;5.11;73.82;98594.15;1734138;82;21150;-39
2021/03/15 06:02:51;;;;;;;66.53;36.95;;;;;;;5.21;73.80;98583.47;1739860;81;21045;-39
2021/03/15 06:05:24;;;;;;;74.30;35.65;;;;;;;5.21;73.62;98584.26;1771217;79;20999;-38
2021/03/15 06:08:20;;;;;;;59.18;34.35;;;;;;;5.21;73.85;98588.29;1737456;82;21028;-39
2021/03/15 06:11:11;;;;;;;71.97;38.60;;;;;;;5.28;73.78;98588.27;1764171;79;22302;-39
2021/03/15 06:13:40;;;;;;;56.18;37.67;;;;;;;5.28;73.56;98586.34;1713710;83;21016;-39
2021/03/15 06:16:10;;;;;;;57.40;34.48;;;;;;;5.31;73.45;98585.67;1732702;80;21045;-39
2021/03/15 06:18:41;;;;;;;56.25;35.52;;;;;;;5.40;73.17;98588.20;1725201;80;21146;-39
2021/03/15 06:21:12;;;;;;;61.55;35.10;;;;;;;5.44;73.20;98585.03;1715618;81;21222;-39
2021/03/15 06:23:40;;;;;;;58.55;36.63;;;;;;;5.47;73.27;98578.99;1737477;82;22068;-39
2021/03/15 06:26:09;;;;;;;64.35;35.08;;;;;;;5.56;73.15;98577.70;1738423;82;21151;-39
2021/03/15 06:28:36;;;;;;;61.98;36.77;;;;;;;5.66;72.99;98580.45;1741882;82;21441;-39
2021/03/15 06:31:04;;;;;;;55.88;37.50;;;;;;;5.76;72.67;98588.57;1740538;82;21393;-39
2021/03/15 06:33:32;;;;;;;50.80;34.85;;;;;;;5.84;72.42;98588.95;1730185;82;21557;-39
2021/03/15 06:36:05;;;;;;;53.10;36.42;;;;;;;5.95;72.12;98591.38;1768221;79;21358;-39
2021/03/15 06:38:35;;;;;;;53.63;36.38;;;;;;;6.07;71.80;98582.64;1705736;83;21640;-39
2021/03/15 06:41:05;;;;;;;49.42;33.78;;;;;;;6.19;71.54;98578.31;1713855;82;21167;-40
2021/03/15 06:43:33;;;;;;;52.23;34.70;;;;;;;6.31;71.33;98574.16;1750318;81;21142;-40
2021/03/15 06:46:01;;;;;;;56.58;37.78;;;;;;;6.40;70.91;98569.36;1753852;81;21181;-40
2021/03/15 06:48:30;;;;;;;49.93;33.70;;;;;;;6.43;70.51;98564.64;1743821;81;21648;-40
2021/03/15 06:50:58;;;;;;;53.42;34.27;;;;;;;6.41;70.40;98564.20;1742646;80;21138;-39
2021/03/15 06:53:38;;;;;;;54.35;36.60;;;;;;;6.41;70.27;98558.25;1796894;79;21166;-40
2021/03/15 06:56:17;;;;;;;;;;;;;;;6.44;70.12;98564.27;1804214;79;21115;-40
2021/03/15 06:58:51;;;;;;;54.70;37.78;;;;;;;6.40;70.14;98553.20;1805025;79;20204;-39
2021/03/15 07:01:26;;;;;;;59.08;38.73;;;;;;;6.24;70.63;98561.33;1797173;78;21270;-40
2021/03/15 07:04:08;;;;;;;57.65;38.88;;;;;;;6.18;70.85;98558.69;1793445;79;21021;-39
2021/03/15 07:06:41;;;;;;;60.58;39.05;;;;;;;6.14;71.34;98561.86;1798006;79;22247;-40
2021/03/15 07:09:13;;;;;;;61.23;38.98;;;;;;;6.19;71.40;98559.47;1795491;79;21164;-40
2021/03/15 07:11:42;;;;;;;61.60;39.63;;;;;;;6.20;71.59;98559.09;1806847;78;21562;-40
2021/03/15 07:14:24;;;;;;;58.45;38.10;;;;;;;6.25;71.66;98553.45;1814532;77;22323;-39
2021/03/15 07:17:01;;;;;;;59.73;37.73;;;;;;;6.33;71.65;98543.08;1788194;79;21012;-40
2021/03/15 07:19:29;;;;;;;53.83;35.78;;;;;;;6.39;71.57;98545.69;1778229;78;21186;-40
2021/03/15 07:21:58;;;;;;;45.65;30.15;;;;;;;6.59;71.31;98547.86;1737359;81;21106;-40
2021/03/15 07:24:31;;;;;;;61.90;37.85;;;;;;;6.70;70.93;98550.78;1771520;79;21106;-40
2021/03/15 07:26:58;;;;;;;60.73;38.08;;;;;;;6.84;70.85;98552.42;1766315;79;21600;-40
2021/03/15 07:29:28;;;;;;;56.92;37.33;;;;;;;6.98;70.50;98545.40;1731781;82;21607;-40
2021/03/15 07:31:56;;;;;;;53.78;36.77;;;;;;;7.15;69.82;98547.45;1743681;80;20985;-40
2021/03/15 07:34:27;;;;;;;61.50;39.70;;;;;;;7.29;69.32;98542.33;1771568;79;21736;-39
2021/03/15 07:36:59;;;;;;;57.78;38.15;;;;;;;7.34;69.08;98543.39;1770420;79;21166;-40
2021/03/15 07:39:28;;;;;;;59.10;37.95;;;;;;;7.35;68.73;98540.34;1772681;79;21370;-40
2021/03/15 07:41:58;;;;;;;51.50;34.40;;;;;;;7.37;68.56;98542.09;1769953;80;21143;-40
2021/03/15 07:44:32;;;;;;;53.50;36.40;;;;;;;7.46;68.86;98541.08;1770782;80;21177;-40
2021/03/15 07:47:06;;;;;;;54.25;35.23;;;;;;;7.60;68.25;98549.45;1767788;80;21174;-40
2021/03/15 07:49:39;;;;;;;51.18;34.33;;;;;;;7.63;67.62;98547.38;1772423;79;21573;-40
2021/03/15 07:52:11;;;;;;;52.00;36.17;;;;;;;7.57;67.85;98551.50;1773171;79;21570;-40
2021/03/15 07:54:41;;;;;;;63.78;41.20;;;;;;;7.54;68.02;98557.05;1769992;79;21164;-40
2021/03/15 07:57:20;;;;;;;65.05;42.85;;;;;;;7.53;68.17;98554.70;1759897;80;21536;-40
2021/03/15 07:59:51;;;;;;;66.42;43.42;;;;;;;7.57;68.19;98555.55;1771879;79;21629;-39
2021/03/15 08:02:24;;;;;;;69.40;44.15;;;;;;;7.55;67.91;98552.44;1733465;82;21145;-40
2021/03/15 08:04:54;;;;;;;64.03;43.35;;;;;;;7.48;68.18;98556.34;1773735;79;21634;-40
2021/03/15 08:07:26;;;;;;;65.65;42.10;;;;;;;7.41;68.24;98555.64;1769599;79;21168;-40
2021/03/15 08:12:14;;;;;;;64.58;42.10;;;;;;;7.42;68.72;98555.86;1823505;77;22494;-39
2021/03/15 08:14:46;;;;;;;65.87;42.75;;;;;;;7.32;68.90;98563.96;1797392;78;20993;-39
2021/03/15 08:17:18;;;;;;;60.92;40.10;;;;;;;7.36;69.14;98564.80;1794985;79;21196;-39
2021/03/15 08:19:47;;;;;;;62.25;39.80;;;;;;;7.39;69.00;98558.71;1798435;78;21194;-40
2021/03/15 08:22:22;;;;;;;65.20;40.35;;;;;;;7.47;68.96;98558.26;1747137;80;21065;-39
2021/03/15 08:24:51;;;;;;;71.77;42.08;;;;;;;7.55;69.03;98564.58;1734250;80;20961;-39
2021/03/15 08:27:19;;;;;;;64.50;40.70;;;;;;;7.62;69.03;98549.85;1765514;80;21170;-40
2021/03/15 08:29:50;;;;;;;55.03;37.08;;;;;;;7.68;68.97;98553.25;1771395;80;21519;-39
2021/03/15 08:32:18;;;;;;;55.08;35.33;;;;;;;7.80;68.65;98556.33;1775255;80;21076;-39
2021/03/15 08:34:46;;;;;;;53.83;35.63;;;;;;;7.98;67.93;98560.11;1761428;80;20984;-40
2021/03/15 08:37:14;;;;;;;56.02;37.03;;;;;;;8.05;67.33;98558.86;1731445;81;21179;-39
2021/03/15 08:39:42;;;;;;;55.65;36.48;;;;;;;8.10;67.45;98563.17;1730675;80;21183;-39
2021/03/15 08:42:18;;;;;;;58.87;37.33;;;;;;;8.12;66.97;98565.73;1666472;82;21290;-40
2021/03/15 08:44:49;;;;;;;50.98;35.28;;;;;;;8.10;66.89;98576.11;1736984;80;21166;-39
2021/03/15 08:47:51;;;;;;;56.25;37.25;;;;;;;8.07;67.42;98571.44;1721638;81;21052;-39
2021/03/15 08:50:40;;;;;;;64.85;39.80;;;;;;;8.17;67.20;98572.18;1755926;80;21617;-39
2021/03/15 08:53:09;;;;;;;62.08;39.70;;;;;;;8.15;66.85;98569.63;1763192;80;21163;-39
2021/03/15 08:55:51;;;;;;;61.70;39.92;;;;;;;8.04;66.86;98572.14;1761662;80;21219;-39
2021/03/15 08:58:41;;;;;;;56.00;37.33;;;;;;;7.93;67.16;98575.83;1748928;80;21207;-40
2021/03/15 09:01:16;;;;;;;61.10;40.40;;;;;;;7.85;67.47;98583.01;1768570;80;21226;-40
2021/03/15 09:04:03;;;;;;;54.40;38.00;;;;;;;7.84;67.58;98580.12;1757687;79;21167;-39
2021/03/15 09:06:37;;;;;;;61.98;41.48;;;;;;;7.79;67.73;98580.42;1763042;80;21166;-39
2021/03/15 09:09:25;;;;;;;62.73;41.77;;;;;;;7.66;68.02;98572.27;1759518;79;21162;-40
2021/03/15 09:11:55;;;;;;;65.42;40.78;;;;;;;7.57;68.42;98574.42;1720640;82;21183;-40
2021/03/15 09:14:31;;;;;;;65.57;42.30;;;;;;;7.49;68.59;98573.53;1744621;81;21633;-39
2021/03/15 09:17:18;;;;;;;69.20;43.52;;;;;;;7.48;68.60;98569.27;1731090;82;21147;-39
2021/03/15 09:19:48;;;;;;;65.32;41.73;;;;;;;7.45;68.80;98572.69;1726326;81;21145;-39
2021/03/15 09:22:38;;;;;;;73.00;44.53;;;;;;;7.45;68.95;98573.25;1751413;80;22230;-39
2021/03/15 09:25:19;;;;;;;68.15;43.20;;;;;;;7.43;69.02;98570.91;1788377;78;21276;-41
2021/03/15 09:27:52;;;;;;;72.67;45.75;;;;;;;7.42;69.03;98571.47;1723564;81;21765;-40
2021/03/15 09:30:30;;;;;;;72.72;45.90;;;;;;;7.37;69.51;98559.63;1728324;82;21184;-41
2021/03/15 09:32:58;;;;;;;70.78;43.58;;;;;;;7.32;69.40;98572.05;1731845;81;21115;-41
2021/03/15 09:35:31;;;;;;;71.07;45.00;;;;;;;7.26;69.60;98572.12;1733854;81;21397;-40
2021/03/15 09:38:10;;;;;;;72.75;47.03;;;;;;;7.23;69.53;98573.41;1787087;79;21168;-41
2021/03/15 09:40:44;;;;;;;85.35;52.45;;;;;;;7.17;69.86;98574.26;1780184;79;21151;-40
2021/03/15 09:43:21;;;;;;;81.72;50.08;;;;;;;7.12;70.06;98577.23;1789750;79;21243;-40
2021/03/15 09:45:58;;;;;;;85.47;50.23;;;;;;;7.10;70.19;98576.83;1789014;79;21139;-40
2021/03/15 09:48:29;;;;;;;82.55;50.90;;;;;;;7.12;70.44;98578.58;1778868;79;21189;-41
2021/03/15 09:51:03;;;;;;;82.00;51.18;;;;;;;7.12;70.52;98577.80;1779590;78;21593;-40
2021/03/15 09:53:50;;;;;;;88.37;52.67;;;;;;;7.12;70.96;98580.49;1820654;77;23404;-40
2021/03/15 09:56:19;;;;;;;82.67;51.18;;;;;;;7.06;70.99;98582.72;1793940;78;21047;-39
2021/03/15 09:58:50;;;;;;;;;;;;;;;6.71;71.11;98526.76;1797916;78;21379;-39
2021/03/15 10:01:24;;;;;;;89.20;52.53;;;;;;;7.08;71.29;98581.78;1790717;78;20214;-40
2021/03/15 10:04:12;;;;;;;93.75;53.38;;;;;;;7.02;71.70;98575.10;1830766;78;22816;-39
2021/03/15 10:06:57;;;;;;;92.05;54.33;;;;;;;7.01;72.02;98573.56;1675039;84;21060;-39
2021/03/15 10:09:54;;;;;;;93.67;55.38;;;;;;;7.14;72.32;98573.63;1821598;78;20253;-40
2021/03/15 10:12:41;;;;;;;92.57;55.80;;;;;;;7.18;72.20;98577.73;1811355;79;21027;-39
2021/03/15 10:15:22;;;;;;;94.52;54.77;;;;;;;7.23;72.33;98571.49;1833350;78;22769;-39
2021/03/15 10:17:58;;;;;;;81.10;51.42;;;;;;;7.21;72.29;98567.02;1798538;79;21007;-39
2021/03/15 10:20:43;;;;;;;79.50;49.55;;;;;;;7.24;72.33;98563.62;1827030;78;22670;-40
2021/03/15 10:23:18;;;;;;;83.17;51.00;;;;;;;7.25;72.03;98566.53;1815713;79;21601;-39
2021/03/15 10:26:02;;;;;;;84.40;52.93;;;;;;;7.18;72.12;98567.73;1810983;78;21959;-40
2021/03/15 10:28:34;;;;;;;85.35;50.95;;;;;;;7.15;72.59;98566.33;1808402;77;21011;-39
2021/03/15 10:31:08;;;;;;;81.22;50.80;;;;;;;7.15;72.69;98569.02;1759220;78;21020;-43
2021/03/15 10:33:37;;;;;;;82.33;49.90;;;;;;;7.20;72.72;98563.34;1790821;79;21737;-40
2021/03/15 10:36:06;;;;;;;85.03;52.00;;;;;;;7.19;72.92;98558.52;1758280;79;21582;-39
2021/03/15 10:38:34;;;;;;;75.52;47.50;;;;;;;7.19;73.12;98555.83;1811520;79;21344;-40
2021/03/15 10:41:05;;;;;;;70.52;43.83;;;;;;;7.25;73.09;98560.36;1750562;80;21057;-40
2021/03/15 10:43:34;;;;;;;75.45;45.98;;;;;;;7.31;72.77;98547.56;1757240;80;21029;-39
2021/03/15 10:46:22;;;;;;;79.10;49.77;;;;;;;7.30;72.94;98546.03;1716177;82;21064;-39
2021/03/15 10:48:50;;;;;;;82.00;48.83;;;;;;;7.26;73.10;98549.80;1744530;82;21162;-40
2021/03/15 10:51:19;;;;;;;74.10;46.18;;;;;;;7.25;73.33;98552.28;1749195;82;22131;-39
2021/03/15 10:53:58;;;;;;;80.30;48.52;;;;;;;7.22;73.40;98542.19;1757763;80;21023;-39
2021/03/15 10:56:30;;;;;;;82.85;49.53;;;;;;;7.14;73.39;98535.89;1712667;82;21202;-40
2021/03/15 10:58:59;;;;;;;69.87;42.67;;;;;;;7.04;73.74;98539.16;1737602;81;21179;-39
2021/03/15 11:01:31;;;;;;;65.20;40.67;;;;;;;7.02;73.82;98538.72;1726351;82;21875;-40
2021/03/15 11:04:13;;;;;;;62.17;41.25;;;;;;;7.03;73.86;98534.90;1703432;80;21219;-40
2021/03/15 11:06:52;;;;;;;68.33;42.17;;;;;;;7.02;73.81;98527.19;1752720;81;21189;-39
2021/03/15 11:09:25;;;;;;;61.50;39.05;;;;;;;6.94;73.78;98528.39;1724291;81;21171;-39
2021/03/15 11:11:55;;;;;;;57.83;39.30;;;;;;;6.89;73.81;98533.27;1774860;80;21194;-39
2021/03/15 11:14:26;;;;;;;63.02;41.53;;;;;;;6.90;74.12;98532.93;1761324;80;21198;-39
2021/03/15 11:17:22;;;;;;;69.72;43.75;;;;;;;6.90;74.31;98526.20;1746569;80;21397;-39
2021/03/15 11:19:52;;;;;;;72.95;43.65;;;;;;;6.87;74.40;98526.13;1749982;81;21649;-39
2021/03/15 11:22:26;;;;;;;67.87;43.35;;;;;;;6.81;74.41;98525.63;1768345;81;20992;-39
2021/03/15 11:25:12;;;;;;;72.10;46.53;;;;;;;6.79;74.61;98522.50;1768151;81;28271;-39
2021/03/15 11:27:50;;;;;;;75.45;46.18;;;;;;;6.75;74.72;98514.92;1827037;78;22690;-39
2021/03/15 11:30:26;;;;;;;74.22;45.78;;;;;;;6.65;75.12;98519.52;1782954;79;20957;-39
2021/03/15 11:33:06;;;;;;;76.67;46.60;;;;;;;6.64;75.32;98516.61;1789937;79;21248;-40
2021/03/15 11:35:40;;;;;;;74.50;46.97;;;;;;;6.64;75.18;98522.55;1790359;79;21059;-40
2021/03/15 11:38:22;;;;;;;76.42;44.33;;;;;;;6.59;75.42;98510.72;1790631;79;20957;-39
2021/03/15 11:40:52;;;;;;;69.75;43.78;;;;;;;6.55;75.45;98522.20;1777776;79;21072;-40
2021/03/15 11:43:21;;;;;;;71.15;43.02;;;;;;;6.59;75.51;98526.88;1788305;79;20955;-40
2021/03/15 11:45:51;;;;;;;72.42;44.27;;;;;;;6.63;75.47;98527.75;1795690;78;21194;-40
2021/03/15 11:48:20;;;;;;;65.08;41.23;;;;;;;6.64;75.63;98529.29;1781326;79;22083;-40
2021/03/15 11:50:52;;;;;;;65.72;41.28;;;;;;;6.64;75.50;98527.94;1793957;77;21004;-40
2021/03/15 11:53:21;;;;;;;67.40;42.30;;;;;;;6.60;75.16;98532.48;1780275;79;21130;-40
2021/03/15 11:55:50;;;;;;;67.30;41.13;;;;;;;6.52;75.45;98526.95;1782962;79;21126;-40
2021/03/15 11:58:18;;;;;;;62.30;39.58;;;;;;;6.46;75.61;98527.02;1785356;79;21353;-40